Time;durP1;ratioP1;P1;durP2;ratioP2;P2;SDS_P1;SDS_P2;PMS_P1;PMS_P2;Temp;Humidity;BMP_temperature;BMP_pressure;BME280_temperature;BME280_humidity;BME280_pressure;Samples;Min_cycle;Max_cycle;Signal;HPM_P1;HPM_P2
2022/06/07 00:01:21;;;;;;;13.80;11.33;;;;;;;19.59;78.64;99791.25;5055845;23;20227;-71
2022/06/07 00:03:48;;;;;;;14.33;11.03;;;;;;;19.65;79.03;99794.97;5044454;23;23625;-71
2022/06/07 00:06:15;;;;;;;15.93;10.27;;;;;;;19.64;79.46;99791.41;5055748;23;22371;-70
2022/06/07 00:08:42;;;;;;;17.53;11.90;;;;;;;19.55;79.74;99787.31;5049897;23;22728;-69
2022/06/07 00:11:08;;;;;;;17.87;12.13;;;;;;;19.43;80.48;99779.13;5062974;23;20889;-70
2022/06/07 00:13:35;;;;;;;16.63;11.60;;;;;;;19.34;81.15;99781.28;5059909;23;21588;-70
2022/06/07 00:16:02;;;;;;;16.93;11.57;;;;;;;19.32;81.65;99769.88;5036283;23;22260;-70
2022/06/07 00:18:28;;;;;;;15.40;11.13;;;;;;;19.37;81.32;99771.91;5037109;23;20208;-70
2022/06/07 00:20:55;;;;;;;14.27;10.70;;;;;;;19.45;81.53;99774.31;5077975;23;26315;-71
2022/06/07 00:23:21;;;;;;;12.47;11.00;;;;;;;19.51;81.65;99775.34;5054590;23;21215;-70
2022/06/07 00:25:51;;;;;;;14.90;11.47;;;;;;;19.54;81.27;99783.00;5060805;23;20908;-70
2022/06/07 00:28:18;;;;;;;16.13;11.90;;;;;;;19.58;80.89;99781.50;5065721;23;20214;-72
2022/06/07 00:30:44;;;;;;;17.90;12.30;;;;;;;19.55;81.01;99779.22;5062957;23;20244;-69
2022/06/07 00:33:11;;;;;;;17.20;12.10;;;;;;;19.53;81.15;99775.94;5050654;23;20343;-70
2022/06/07 00:35:37;;;;;;;17.87;12.90;;;;;;;19.46;81.86;99769.78;5057550;23;21595;-70
2022/06/07 00:38:05;;;;;;;16.40;12.20;;;;;;;19.36;82.46;99770.25;5054141;23;20207;-71
2022/06/07 00:40:32;;;;;;;15.57;13.03;;;;;;;19.30;83.47;99773.84;5057767;23;20665;-69
2022/06/07 00:42:59;;;;;;;16.30;13.67;;;;;;;19.16;84.61;99765.00;5056365;23;20208;-72
2022/06/07 00:45:26;;;;;;;15.77;13.23;;;;;;;19.20;85.21;99768.94;5067996;23;20261;-72
2022/06/07 00:47:53;;;;;;;20.17;12.50;;;;;;;19.18;85.76;99771.00;5056850;23;20200;-71
2022/06/07 00:50:40;;;;;;;17.40;12.33;;;;;;;19.14;85.88;99775.19;5057006;23;20989;-72
2022/06/07 00:53:21;;;;;;;16.77;13.27;;;;;;;19.15;86.51;99771.44;5064604;23;20200;-71
2022/06/07 00:55:49;;;;;;;21.80;14.13;;;;;;;19.23;86.09;99763.09;5063440;23;22475;-73
2022/06/07 00:58:16;;;;;;;17.20;13.63;;;;;;;19.25;86.15;99769.09;5048440;23;20211;-72
2022/06/07 01:00:42;;;;;;;18.80;14.30;;;;;;;19.19;86.35;99773.47;5089375;23;21452;-72
2022/06/07 01:03:09;;;;;;;19.57;14.43;;;;;;;19.04;87.04;99772.16;5078910;23;20415;-72
2022/06/07 01:05:36;;;;;;;17.73;13.30;;;;;;;19.00;87.83;99773.63;5025129;23;20208;-73
2022/06/07 01:10:49;;;;;;;18.33;15.67;;;;;;;18.98;88.04;99766.53;5028455;23;20211;-72
2022/06/07 01:13:20;;;;;;;17.83;13.67;;;;;;;18.92;88.42;99767.44;5026740;23;21582;-72
2022/06/07 01:15:47;;;;;;;23.80;17.23;;;;;;;18.88;88.57;99758.13;5022655;23;20276;-72
2022/06/07 01:18:14;;;;;;;25.17;19.20;;;;;;;18.81;89.49;99757.31;5023096;23;20218;-73
2022/06/07 01:20:40;;;;;;;23.03;18.53;;;;;;;18.75;90.02;99760.84;5032735;23;20209;-72
2022/06/07 01:23:07;;;;;;;22.20;17.53;;;;;;;18.67;90.96;99753.00;5027228;23;20669;-71
2022/06/07 01:25:34;;;;;;;23.90;18.57;;;;;;;18.61;91.96;99748.47;5040981;23;21597;-72
2022/06/07 01:28:01;;;;;;;24.07;18.80;;;;;;;18.61;92.01;99738.50;5047341;23;20251;-73
2022/06/07 01:30:28;;;;;;;22.00;17.90;;;;;;;18.67;92.52;99743.06;5031652;23;20266;-73
2022/06/07 01:32:55;;;;;;;22.23;17.30;;;;;;;18.71;93.51;99748.84;5085038;23;20496;-71
2022/06/07 01:35:21;;;;;;;24.20;17.67;;;;;;;18.71;93.81;99744.28;5048236;23;21603;-72
2022/06/07 01:37:48;;;;;;;26.13;19.37;;;;;;;18.64;94.68;99748.06;5028703;23;20205;-73
2022/06/07 01:43:00;;;;;;;25.53;19.77;;;;;;;18.45;97.85;99733.59;5038821;23;20572;-72
2022/06/07 01:45:26;;;;;;;23.73;19.27;;;;;;;18.31;99.42;99730.16;5041436;23;20239;-72
2022/06/07 01:47:54;;;;;;;23.63;17.70;;;;;;;18.36;98.92;99727.66;5022200;23;20201;-73
2022/06/07 01:50:20;;;;;;;28.43;22.40;;;;;;;18.34;99.45;99727.03;5031533;23;20202;-72
2022/06/07 01:52:47;;;;;;;25.33;20.93;;;;;;;18.38;99.55;99733.66;5040140;23;20237;-72
2022/06/07 01:55:13;;;;;;;26.23;20.37;;;;;;;18.47;99.22;99735.06;5020558;23;23084;-72
2022/06/07 01:57:40;;;;;;;25.17;21.10;;;;;;;18.50;98.98;99731.13;5044245;23;21387;-71
2022/06/07 02:00:07;;;;;;;23.40;18.67;;;;;;;18.50;99.03;99731.94;5033578;23;20895;-72
2022/06/07 02:02:33;;;;;;;25.87;19.73;;;;;;;18.54;98.92;99730.47;5023739;23;21832;-72
2022/06/07 02:05:00;;;;;;;31.57;22.97;;;;;;;18.63;99.56;99735.63;5042948;23;20201;-73
2022/06/07 02:07:27;;;;;;;31.63;24.97;;;;;;;18.73;98.62;99733.28;5030897;23;21574;-72
2022/06/07 02:09:53;;;;;;;28.27;22.43;;;;;;;18.68;98.91;99738.47;5030747;23;20376;-72
2022/06/07 02:12:20;;;;;;;32.17;25.03;;;;;;;18.77;98.58;99737.22;5020712;23;20205;-72
2022/06/07 02:14:47;;;;;;;35.57;27.57;;;;;;;18.76;98.03;99732.84;5030790;23;23449;-70
2022/06/07 02:17:13;;;;;;;30.67;25.40;;;;;;;18.73;98.64;99727.88;5021534;23;20262;-74
2022/06/07 02:19:40;;;;;;;39.97;28.40;;;;;;;18.79;98.12;99735.16;5036560;23;21840;-72
2022/06/07 02:22:07;;;;;;;35.43;28.07;;;;;;;18.81;98.08;99735.75;5019980;23;20219;-73
2022/06/07 02:24:34;;;;;;;42.53;32.20;;;;;;;18.81;98.08;99740.34;5031391;23;20328;-72
2022/06/07 02:27:04;;;;;;;37.23;30.03;;;;;;;18.71;99.10;99732.69;5029294;23;20201;-73
2022/06/07 02:29:34;;;;;;;37.83;30.47;;;;;;;18.61;99.94;99726.91;5009735;23;20278;-74
2022/06/07 02:32:06;;;;;;;35.37;29.33;;;;;;;18.69;99.49;99726.69;5043156;23;20200;-72
2022/06/07 02:34:34;;;;;;;39.63;32.07;;;;;;;18.62;100.00;99732.09;5030437;23;20253;-73
2022/06/07 02:37:02;;;;;;;39.73;31.33;;;;;;;18.60;100.00;99730.66;5031176;23;20310;-72
2022/06/07 02:39:30;;;;;;;39.90;30.87;;;;;;;18.68;100.00;99733.94;5022400;23;21208;-72
2022/06/07 02:41:58;;;;;;;38.33;28.43;;;;;;;18.64;100.00;99731.91;5035630;23;20204;-73
2022/06/07 02:44:25;;;;;;;40.67;30.13;;;;;;;18.63;100.00;99727.53;5025159;23;20209;-73
2022/06/07 02:46:51;;;;;;;33.17;25.70;;;;;;;18.62;100.00;99726.72;5022485;23;20318;-71
2022/06/07 02:49:18;;;;;;;39.83;31.30;;;;;;;18.55;100.00;99729.44;5040995;23;20212;-73
2022/06/07 02:51:45;;;;;;;43.07;32.97;;;;;;;18.49;100.00;99719.50;5017273;23;20260;-72
2022/06/07 02:54:22;;;;;;;44.40;33.87;;;;;;;18.38;100.00;99720.19;5031158;23;20256;-73
2022/06/07 02:56:49;;;;;;;44.37;34.50;;;;;;;18.36;100.00;99719.56;5064816;23;20206;-72
2022/06/07 02:59:16;;;;;;;39.27;31.87;;;;;;;18.45;100.00;99729.06;5080249;23;20275;-72
2022/06/07 03:01:42;;;;;;;38.27;31.10;;;;;;;18.58;100.00;99741.66;5059303;23;20666;-73
2022/06/07 03:04:09;;;;;;;39.07;31.13;;;;;;;18.69;100.00;99748.25;5032623;23;20206;-72
2022/06/07 03:06:35;;;;;;;40.53;32.40;;;;;;;18.70;100.00;99744.50;5038068;23;20232;-71
2022/06/07 03:09:03;;;;;;;43.47;33.67;;;;;;;18.46;100.00;99749.56;5046818;23;20272;-72
2022/06/07 03:11:29;;;;;;;60.43;48.70;;;;;;;18.36;100.00;99741.13;5023594;23;20201;-72
2022/06/07 03:13:56;;;;;;;207.40;164.23;;;;;;;18.38;100.00;99739.06;5047209;23;20253;-72
2022/06/07 03:16:22;;;;;;;152.23;126.90;;;;;;;18.32;100.00;99739.88;5037144;23;20260;-72
2022/06/07 03:18:49;;;;;;;193.70;160.77;;;;;;;18.42;100.00;99740.25;5056001;23;20344;-72
2022/06/07 03:21:16;;;;;;;188.10;156.20;;;;;;;18.48;100.00;99749.38;5008390;23;20205;-73
2022/06/07 03:23:43;;;;;;;196.13;155.43;;;;;;;18.46;100.00;99746.06;5053456;23;20207;-72
2022/06/07 03:26:12;;;;;;;232.23;191.73;;;;;;;18.40;100.00;99736.94;5036871;23;21647;-72
2022/06/07 03:28:38;;;;;;;206.90;160.00;;;;;;;18.34;100.00;99738.63;5104603;23;21287;-71
2022/06/07 03:31:12;;;;;;;214.13;165.40;;;;;;;18.35;100.00;99734.06;5107185;23;20684;-74
2022/06/07 03:33:40;;;;;;;190.73;144.13;;;;;;;18.32;100.00;99739.88;5127832;23;20205;-72
2022/06/07 03:36:14;;;;;;;148.77;111.83;;;;;;;18.40;100.00;99726.16;5107866;23;20888;-72
2022/06/07 03:38:41;;;;;;;118.47;88.77;;;;;;;18.52;100.00;99724.47;5145334;23;20286;-72
2022/06/07 03:41:08;;;;;;;142.20;104.00;;;;;;;18.58;100.00;99724.66;5078226;23;20283;-71
2022/06/07 03:43:36;;;;;;;117.90;89.43;;;;;;;18.69;100.00;99715.91;5032070;23;20777;-71
2022/06/07 03:46:12;;;;;;;112.27;84.43;;;;;;;18.79;100.00;99713.59;5040452;23;20205;-72
2022/06/07 03:48:41;;;;;;;140.07;105.47;;;;;;;19.01;100.00;99718.63;5068773;23;22251;-71
2022/06/07 03:51:08;;;;;;;136.03;102.73;;;;;;;19.13;100.00;99730.38;5067739;23;20210;-71
2022/06/07 03:53:35;;;;;;;103.27;74.70;;;;;;;19.20;100.00;99731.16;5020298;23;25386;-72
2022/06/07 03:56:07;;;;;;;124.30;93.67;;;;;;;19.01;100.00;99727.56;5037428;23;21754;-72
2022/06/07 03:58:34;;;;;;;112.23;78.83;;;;;;;18.81;100.00;99716.88;5071836;23;20217;-74
2022/06/07 04:01:01;;;;;;;94.40;70.07;;;;;;;18.79;100.00;99712.75;5038517;23;21529;-73
2022/06/07 04:03:29;;;;;;;83.23;60.97;;;;;;;18.92;100.00;99718.91;5044834;23;20411;-70
2022/06/07 04:05:56;;;;;;;86.03;60.73;;;;;;;19.07;100.00;99717.75;5042279;23;20217;-72
2022/06/07 04:08:25;;;;;;;83.67;63.10;;;;;;;19.20;100.00;99714.97;5031487;23;22262;-74
2022/06/07 04:11:00;;;;;;;106.60;79.20;;;;;;;19.33;100.00;99717.56;5030971;23;20245;-72
2022/06/07 04:13:29;;;;;;;90.30;67.63;;;;;;;19.38;100.00;99716.91;5030275;23;20248;-72
2022/06/07 04:15:55;;;;;;;107.63;80.80;;;;;;;19.50;100.00;99715.16;5038750;23;21780;-71
2022/06/07 04:18:23;;;;;;;73.67;56.83;;;;;;;19.52;100.00;99706.81;5019633;23;22186;-70
2022/06/07 04:20:49;;;;;;;58.23;45.17;;;;;;;19.61;100.00;99710.88;5030745;23;21520;-70
2022/06/07 04:23:21;;;;;;;59.90;45.43;;;;;;;19.74;99.07;99720.78;5032158;23;20208;-72
2022/06/07 04:25:48;;;;;;;56.23;41.20;;;;;;;19.95;97.45;99722.22;5026457;23;20612;-70
2022/06/07 04:28:15;;;;;;;66.17;47.10;;;;;;;20.00;96.44;99720.50;5030000;23;20271;-71
2022/06/07 04:30:44;;;;;;;64.10;47.80;;;;;;;20.12;96.19;99723.28;5046035;23;20201;-69
2022/06/07 04:33:11;;;;;;;55.43;40.70;;;;;;;20.16;96.14;99716.38;4999169;23;21483;-71
2022/06/07 04:35:37;;;;;;;51.77;40.23;;;;;;;19.96;96.33;99719.28;5018539;23;23003;-71
2022/06/07 04:38:04;;;;;;;50.50;39.13;;;;;;;19.96;96.93;99713.06;5031198;23;20209;-69
2022/06/07 04:40:30;;;;;;;59.33;42.03;;;;;;;20.01;97.26;99714.03;5048813;23;20235;-70
2022/06/07 04:42:57;;;;;;;43.40;32.83;;;;;;;20.13;94.70;99719.50;5015266;23;20257;-71
2022/06/07 04:45:24;;;;;;;45.57;30.70;;;;;;;20.31;91.54;99724.09;5026317;23;20216;-71
2022/06/07 04:47:50;;;;;;;40.33;29.03;;;;;;;20.27;91.63;99725.59;5032551;23;20215;-70
2022/06/07 04:50:18;;;;;;;34.57;26.93;;;;;;;20.74;91.24;99730.44;5026508;23;20326;-71
2022/06/07 04:52:45;;;;;;;28.93;21.47;;;;;;;21.30;86.78;99734.59;5040945;23;20267;-71
2022/06/07 04:55:13;;;;;;;32.37;23.60;;;;;;;21.52;83.14;99737.63;5038602;23;20216;-71
2022/06/07 04:57:40;;;;;;;30.13;23.17;;;;;;;21.48;83.21;99737.25;5048967;23;20285;-71
2022/06/07 05:00:08;;;;;;;29.67;24.33;;;;;;;21.23;84.08;99728.47;5017860;23;20717;-71
2022/06/07 05:02:38;;;;;;;28.77;21.47;;;;;;;21.41;82.89;99736.53;5029650;23;20216;-71
2022/06/07 05:05:05;;;;;;;32.40;21.70;;;;;;;21.34;82.79;99735.78;5014820;23;20208;-70
2022/06/07 05:07:32;;;;;;;30.47;22.97;;;;;;;21.47;82.27;99738.31;5055127;23;21508;-70
2022/06/07 05:09:58;;;;;;;23.00;19.07;;;;;;;21.75;81.70;99744.94;5014495;23;20236;-72
2022/06/07 05:12:25;;;;;;;29.07;19.57;;;;;;;21.90;81.66;99739.84;5039568;23;20209;-71
2022/06/07 05:14:52;;;;;;;27.43;20.47;;;;;;;21.77;79.57;99740.09;5022929;23;20207;-72
2022/06/07 05:17:18;;;;;;;27.20;19.73;;;;;;;21.75;80.76;99744.94;5039862;23;21235;-71
2022/06/07 05:19:45;;;;;;;26.20;20.70;;;;;;;21.52;81.25;99742.19;5058067;23;20208;-71
2022/06/07 05:22:12;;;;;;;28.00;21.17;;;;;;;21.58;81.93;99742.09;5020257;23;21744;-71
2022/06/07 05:24:38;;;;;;;27.97;20.63;;;;;;;21.44;81.90;99741.47;5035115;23;21261;-71
2022/06/07 05:27:07;;;;;;;25.50;20.47;;;;;;;21.74;81.54;99745.16;5047284;23;20482;-70
2022/06/07 05:29:39;;;;;;;22.97;18.37;;;;;;;21.97;80.39;99744.34;5020573;23;25377;-71
2022/06/07 05:32:06;;;;;;;28.23;22.13;;;;;;;22.02;79.66;99742.56;5033838;23;20204;-72
2022/06/07 05:34:32;;;;;;;24.80;20.70;;;;;;;21.90;78.08;99736.31;5048679;23;21538;-71
2022/06/07 05:36:59;;;;;;;30.70;21.63;;;;;;;21.79;79.49;99737.16;5052246;23;20209;-71
2022/06/07 05:39:27;;;;;;;28.20;21.43;;;;;;;21.58;80.85;99735.84;5028202;23;20222;-71
2022/06/07 05:41:54;;;;;;;26.43;19.83;;;;;;;21.69;81.23;99737.75;5038602;23;20425;-70
2022/06/07 05:44:22;;;;;;;24.20;18.87;;;;;;;21.99;79.43;99747.63;5048656;23;20204;-73
2022/06/07 05:46:49;;;;;;;23.60;19.03;;;;;;;22.27;77.46;99746.94;5024688;23;20300;-72
2022/06/07 05:49:16;;;;;;;28.70;20.13;;;;;;;22.67;75.83;99755.06;5032240;23;20201;-69
2022/06/07 05:51:43;;;;;;;27.23;19.30;;;;;;;23.47;71.34;99753.25;5049395;23;20230;-70
2022/06/07 05:54:11;;;;;;;22.77;18.73;;;;;;;24.16;67.79;99761.13;5040103;23;21604;-70
2022/06/07 05:56:38;;;;;;;26.03;19.77;;;;;;;25.12;63.51;99758.97;5031560;23;20206;-72
2022/06/07 05:59:05;;;;;;;25.47;19.63;;;;;;;25.73;61.35;99764.16;5034273;23;20246;-72
2022/06/07 06:01:33;;;;;;;25.27;18.40;;;;;;;26.74;56.57;99766.66;5027873;23;21872;-71
2022/06/07 06:04:03;;;;;;;24.57;17.97;;;;;;;26.87;54.66;99769.94;5027712;23;20253;-70
2022/06/07 06:06:30;;;;;;;24.77;17.77;;;;;;;26.63;55.35;99764.16;5023725;23;20986;-71
2022/06/07 06:12:04;;;;;;;20.50;16.47;;;;;;;26.23;56.42;99765.59;4955701;23;20947;-70
2022/06/07 06:14:31;;;;;;;29.10;18.97;;;;;;;26.49;55.62;99763.78;4960580;23;20962;-71
2022/06/07 06:16:58;;;;;;;26.83;18.60;;;;;;;26.98;54.32;99760.69;4994593;23;20251;-70
2022/06/07 06:19:24;;;;;;;21.20;17.60;;;;;;;28.03;50.86;99769.50;5021375;23;20213;-71
2022/06/07 06:21:51;;;;;;;18.35;14.90;;;;;;;28.67;47.14;99773.41;5020043;23;20475;-71
2022/06/07 06:24:20;;;;;;;18.70;14.45;;;;;;;29.33;45.51;99778.47;5042762;23;20932;-71
2022/06/07 06:26:46;;;;;;;24.17;18.33;;;;;;;28.99;45.09;99771.03;5022834;23;21427;-70
2022/06/07 06:29:13;;;;;;;22.50;16.37;;;;;;;29.37;44.89;99767.78;5020692;23;21437;-73
2022/06/07 06:31:40;;;;;;;22.53;15.17;;;;;;;29.93;43.39;99785.69;5052723;23;20242;-71
2022/06/07 06:34:07;;;;;;;19.55;13.70;;;;;;;30.45;41.86;99773.88;5039425;23;20208;-72
2022/06/07 06:36:34;;;;;;;19.67;13.80;;;;;;;31.65;39.00;99780.94;5059635;23;20269;-71
2022/06/07 06:39:10;;;;;;;21.15;16.20;;;;;;;31.71;38.62;99776.19;5033258;23;20714;-72
2022/06/07 06:41:41;;;;;;;21.80;17.23;;;;;;;31.72;38.23;99777.81;5064154;23;20209;-72
2022/06/07 06:44:09;;;;;;;19.58;14.70;;;;;;;32.44;35.95;99779.25;5019401;23;20213;-72
2022/06/07 06:46:39;;;;;;;24.98;16.05;;;;;;;32.19;36.53;99781.38;5037012;23;20256;-72
2022/06/07 06:49:07;;;;;;;18.77;13.45;;;;;;;32.92;34.75;99793.38;5055965;23;20539;-71
2022/06/07 06:51:34;;;;;;;22.35;15.55;;;;;;;32.98;34.44;99789.38;5013965;23;20217;-72
2022/06/07 06:54:02;;;;;;;14.43;10.85;;;;;;;33.98;32.66;99796.63;4999335;23;20205;-73
2022/06/07 06:56:31;;;;;;;19.45;14.20;;;;;;;34.08;32.18;99789.22;5015539;23;20207;-73
2022/06/07 06:58:58;;;;;;;21.45;15.18;;;;;;;34.00;32.03;99783.31;5023142;23;20711;-75
2022/06/07 07:01:31;;;;;;;23.02;15.35;;;;;;;34.20;31.40;99786.69;5012500;23;20306;-75
2022/06/07 07:03:59;;;;;;;28.13;20.10;;;;;;;34.33;31.79;99784.97;5020915;23;20444;-69
2022/06/07 07:06:27;;;;;;;14.40;11.68;;;;;;;33.24;33.56;99771.47;5014898;23;20205;-72
2022/06/07 07:08:55;;;;;;;25.30;16.65;;;;;;;32.53;34.52;99766.41;5050578;23;22180;-75
2022/06/07 07:11:28;;;;;;;27.00;17.08;;;;;;;31.08;37.17;99758.22;5013357;23;21218;-76
2022/06/07 07:13:56;;;;;;;27.13;16.88;;;;;;;30.34;39.87;99744.91;5034583;23;20212;-74
2022/06/07 07:16:29;;;;;;;22.20;15.82;;;;;;;30.90;39.35;99749.66;5009730;23;20455;-75
2022/06/07 07:18:58;;;;;;;23.30;15.50;;;;;;;30.93;36.68;99751.03;5033445;23;20218;-73
2022/06/07 07:21:36;;;;;;;16.33;12.93;;;;;;;30.15;38.76;99747.56;5037436;23;20808;-71
2022/06/07 07:24:04;;;;;;;20.20;12.65;;;;;;;30.00;39.13;99745.00;5037935;23;20209;-71
2022/06/07 07:26:32;;;;;;;24.38;14.95;;;;;;;29.67;40.63;99742.06;5003235;23;20213;-72
2022/06/07 07:28:59;;;;;;;29.48;15.00;;;;;;;29.79;40.07;99739.72;5046480;23;20241;-71
2022/06/07 07:31:30;;;;;;;25.20;15.73;;;;;;;29.38;40.26;99742.81;5030594;23;21310;-72
2022/06/07 07:34:02;;;;;;;24.40;15.43;;;;;;;28.76;41.87;99742.41;5021016;23;20212;-73
2022/06/07 07:36:30;;;;;;;24.08;13.30;;;;;;;28.91;41.31;99741.47;5027041;23;20370;-71
2022/06/07 07:39:01;;;;;;;16.30;11.77;;;;;;;29.51;40.23;99748.75;5018027;23;21288;-72
2022/06/07 07:41:31;;;;;;;23.95;15.75;;;;;;;29.30;40.77;99748.91;5016835;23;20603;-79
2022/06/07 07:44:01;;;;;;;24.73;15.27;;;;;;;29.20;41.33;99738.03;5031442;23;20273;-73
2022/06/07 07:46:31;;;;;;;17.77;12.37;;;;;;;29.18;40.71;99734.75;5051099;23;20214;-72
2022/06/07 07:48:58;;;;;;;21.95;12.98;;;;;;;29.45;40.43;99737.00;5063458;23;20206;-75
2022/06/07 07:51:28;;;;;;;22.13;13.18;;;;;;;29.69;39.05;99742.59;5016224;23;21707;-73
2022/06/07 07:53:56;;;;;;;23.77;13.70;;;;;;;29.81;38.75;99737.53;5015418;23;20213;-79
2022/06/07 07:56:23;;;;;;;25.20;12.77;;;;;;;28.68;40.53;99731.22;5015507;23;20285;-73
2022/06/07 07:58:50;;;;;;;15.57;10.43;;;;;;;29.23;41.02;99737.47;5085339;23;20209;-75
2022/06/07 08:01:21;;;;;;;23.58;12.70;;;;;;;29.14;40.61;99744.66;5028500;23;20542;-73
